Flight Track Log - Related Links

Times and Time Zones

All times are in EDT time to prevent confusion due to time zone crossing. See the TAM3129 flight status page for this flight to view local times or setup timezone preferences in your user account.

Time Position Orientation Groundspeed Altitude Reporting Facility
EDT Latitude Longitude Course Direction KTS MPH feet Rate Location/Type
Wed 05:07:53 AM -20.2530 -40.2840 43° Northeast 118 136  Level FlightAware ADS-B
Wed 05:08:05 AM -20.2450 -40.2780 35° Northeast 152 175 500 2,100 Climbing FlightAware ADS-B
Wed 05:08:33 AM -20.2280 -40.2670 31° Northeast 171 197 1,400 1,696 Climbing FlightAware ADS-B
Wed 05:08:51 AM -20.2150 -40.2580 33° Northeast 192 221 1,800 2,000 Climbing FlightAware ADS-B
Wed 05:09:15 AM -20.1960 -40.2440 35° Northeast 210 242 2,800 2,400 Climbing FlightAware ADS-B
Wed 05:09:21 AM -20.1920 -40.2400 43° Northeast 213 245 3,000 3,000 Climbing FlightAware ADS-B
Wed 05:09:25 AM -20.1900 -40.2350 67° East 215 247 3,300 3,000 Climbing FlightAware ADS-B
Wed 05:09:37 AM -20.1880 -40.2230 80° East 225 259 3,800 2,500 Climbing FlightAware ADS-B
Wed 05:10:01 AM -20.1970 -40.1980 111° Southeast 236 272 4,800 2,595 Climbing FlightAware ADS-B
Wed 05:10:14 AM -20.2080 -40.1920 153° Southeast 233 268 5,400 2,640 Climbing FlightAware ADS-B
Wed 05:10:26 AM -20.2210 -40.1890 168° South 237 273 5,900 1,950 Climbing FlightAware ADS-B
Wed 05:10:54 AM -20.2580 -40.1850 174° South 273 314 6,700 1,765 Climbing FlightAware ADS-B
Wed 05:11:00 AM -20.2650 -40.1840 172° South 279 321 6,900 2,875 Climbing FlightAware ADS-B
Wed 05:11:42 AM -20.3190 -40.1780 174° South 279 321 9,000 2,571 Climbing FlightAware ADS-B
Wed 05:12:10 AM -20.3510 -40.1920 202° Southwest 296 341 9,900 1,932 Climbing FlightAware ADS-B
Wed 05:12:41 AM -20.3870 -40.2210 217° Southwest 314 361 10,900 1,292 Climbing FlightAware ADS-B
Wed 05:13:15 AM -20.4290 -40.2540 216° Southwest 353 406 11,300 833 Climbing FlightAware ADS-B
Wed 05:13:53 AM -20.4840 -40.2960 216° Southwest 391 450 11,900 1,333 Climbing FlightAware ADS-B
Wed 05:14:27 AM -20.5380 -40.3360 215° Southwest 402 463 12,900 1,886 Climbing FlightAware ADS-B
Wed 05:15:03 AM -20.5910 -40.3760 215° Southwest 406 467 14,100 1,629 Climbing FlightAware ADS-B
Wed 05:15:37 AM -20.6390 -40.4130 216° Southwest 417 480 14,800 1,479 Climbing FlightAware ADS-B
Wed 05:16:16 AM -20.7050 -40.4630 215° Southwest 426 490 15,900 2,368 Climbing FlightAware ADS-B
Wed 05:16:53 AM -20.7660 -40.5090 215° Southwest 412 474 17,800 3,081 Climbing FlightAware ADS-B
Wed 05:17:30 AM -20.8170 -40.5490 216° Southwest 389 448 19,700 2,028 Climbing FlightAware ADS-B
Wed 05:18:04 AM -20.8720 -40.5900 215° Southwest 407 468 20,200 1,714 Climbing FlightAware ADS-B
Wed 05:18:40 AM -20.9210 -40.6280 216° Southwest 394 453 21,700 2,057 Climbing FlightAware ADS-B
Wed 05:19:14 AM -20.9760 -40.6690 215° Southwest 395 455 22,600 1,268 Climbing FlightAware ADS-B
Wed 05:19:51 AM -21.0290 -40.7100 216° Southwest 407 468 23,200 845 Climbing FlightAware ADS-B
Wed 05:20:25 AM -21.0860 -40.7540 216° Southwest 422 486 23,600 592 Climbing FlightAware ADS-B
Wed 05:21:02 AM -21.1420 -40.7970 216° Southwest 439 505 23,900 423 Climbing FlightAware ADS-B
Wed 05:21:36 AM -21.2010 -40.8410 215° Southwest 454 522 24,100 338 Climbing FlightAware ADS-B
Wed 05:22:13 AM -21.2630 -40.8890 216° Southwest 469 540 24,300 568 Climbing FlightAware ADS-B
Wed 05:22:50 AM -21.3300 -40.9410 216° Southwest 475 547 24,800 645 Climbing FlightAware ADS-B
Wed 05:23:46 AM -21.4270 -41.0140 215° Southwest 478 550 25,300 1,213 Climbing FlightAware ADS-B
Wed 05:24:24 AM -21.5000 -41.0710 216° Southwest 473 544 26,700 1,808 Climbing FlightAware ADS-B
Wed 05:24:59 AM -21.5680 -41.1240 216° Southwest 472 543 27,500 1,304 Climbing FlightAware ADS-B
Wed 05:25:33 AM -21.6290 -41.1710 216° Southwest 469 540 28,200 1,084 Climbing FlightAware ADS-B
Wed 05:26:22 AM -21.7130 -41.2360 216° Southwest 468 539 29,000 963 Climbing FlightAware ADS-B
Wed 05:26:54 AM -21.7610 -41.2730 216° Southwest 467 537 29,500 1,235 Climbing FlightAware ADS-B
Wed 05:27:30 AM -21.8250 -41.3230 216° Southwest 463 533 30,400 1,714 Climbing FlightAware ADS-B
Wed 05:28:11 AM -21.8960 -41.3770 215° Southwest 446 513 31,700 1,726 Climbing FlightAware ADS-B
Wed 05:28:43 AM -21.9480 -41.4180 216° Southwest 441 507 32,500 960 Climbing FlightAware ADS-B
Wed 05:29:26 AM -22.0170 -41.4720 216° Southwest 447 514 32,900 835 Climbing FlightAware ADS-B
Wed 05:30:02 AM -22.0790 -41.5200 216° Southwest 446 513 33,600 935 Climbing FlightAware ADS-B
Wed 05:30:43 AM -22.1470 -41.5730 216° Southwest 447 514 34,100 904 Climbing FlightAware ADS-B
Wed 05:31:15 AM -22.2010 -41.6150 216° Southwest 444 511 34,700 1,000 Climbing FlightAware ADS-B
Wed 05:31:49 AM -22.2550 -41.6570 216° Southwest 444 511 35,200 794 Climbing FlightAware ADS-B
Wed 05:32:23 AM -22.3100 -41.7000 216° Southwest 445 512 35,600 649 Climbing FlightAware ADS-B
Wed 05:33:03 AM -22.3910 -41.7630 216° Southwest 450 518 36,000 364 Climbing FlightAware ADS-B
Wed 05:33:29 AM -22.4350 -41.7980 216° Southwest 458 527 36,000  Level FlightAware ADS-B
Wed 05:34:05 AM -22.4990 -41.8480 216° Southwest 462 532 36,000  Level FlightAware ADS-B
Wed 05:34:40 AM -22.5580 -41.8950 216° Southwest 462 532 36,000  Level FlightAware ADS-B
Wed 05:35:13 AM -22.6160 -41.9400 216° Southwest 461 531 36,000  Level FlightAware ADS-B
Wed 05:35:49 AM -22.6770 -41.9880 216° Southwest 461 531 36,000  Level FlightAware ADS-B
Wed 05:36:27 AM -22.7440 -42.0420 217° Southwest 454 522 36,000  Level FlightAware ADS-B
Wed 05:36:59 AM -22.7920 -42.0900 223° Southwest 448 516 36,000  Level FlightAware ADS-B
Wed 05:37:35 AM -22.8390 -42.1510 230° Southwest 442 509 36,000  Level FlightAware ADS-B
Wed 05:38:11 AM -22.8780 -42.2190 238° Southwest 434 499 36,000  Level FlightAware ADS-B
Wed 05:38:47 AM -22.9140 -42.2870 240° Southwest 433 498 36,000  Level FlightAware ADS-B
Wed 05:39:20 AM -22.9370 -42.3300 240° Southwest 432 497 36,000  Level FlightAware ADS-B
Wed 05:40:03 AM -22.9900 -42.4300 240° Southwest 432 497 36,000  Level FlightAware ADS-B
Wed 05:40:39 AM -23.0260 -42.4960 239° Southwest 433 498 36,000  Level FlightAware ADS-B
Wed 05:41:11 AM -23.0580 -42.5580 241° Southwest 432 497 36,000  Level FlightAware ADS-B
Wed 05:41:47 AM -23.0880 -42.6280 245° Southwest 427 491 36,000  Level FlightAware ADS-B
Wed 05:42:24 AM -23.1080 -42.7000 253° West 420 483 36,000  Level FlightAware ADS-B
Wed 05:42:55 AM -23.1220 -42.7670 257° West 419 482 36,000  Level FlightAware ADS-B
Wed 05:43:31 AM -23.1370 -42.8390 257° West 417 480 36,000  Level FlightAware ADS-B
Wed 05:44:07 AM -23.1530 -42.9140 257° West 417 480 36,000  Level FlightAware ADS-B
Wed 05:44:44 AM -23.1680 -42.9880 258° West 417 480 36,000  Level FlightAware ADS-B
Wed 05:45:15 AM -23.1820 -43.0530 257° West 417 480 36,000  Level FlightAware ADS-B
Wed 05:45:51 AM -23.1970 -43.1250 257° West 417 480 36,000  Level FlightAware ADS-B
Wed 05:46:28 AM -23.2130 -43.2000 257° West 416 479 36,000  Level FlightAware ADS-B
Wed 05:47:01 AM -23.2260 -43.2670 258° West 416 479 36,000  Level FlightAware ADS-B
Wed 05:47:37 AM -23.2410 -43.3430 258° West 417 480 36,000  Level FlightAware ADS-B
Wed 05:48:13 AM -23.2550 -43.4150 258° West 418 481 36,000  Level FlightAware ADS-B
Wed 05:48:49 AM -23.2700 -43.4900 258° West 419 482 36,000  Level FlightAware ADS-B
Wed 05:49:21 AM -23.2830 -43.5540 258° West 420 483 36,000  Level FlightAware ADS-B
Wed 05:49:57 AM -23.2980 -43.6290 258° West 420 483 36,000  Level FlightAware ADS-B
Wed 05:50:33 AM -23.3120 -43.7020 258° West 421 484 36,000  Level FlightAware ADS-B
Wed 05:51:05 AM -23.3250 -43.7690 258° West 421 484 36,000  Level FlightAware ADS-B
Wed 05:51:41 AM -23.3400 -43.8460 258° West 420 483 36,000  Level FlightAware ADS-B
Wed 05:52:17 AM -23.3540 -43.9190 258° West 419 482 36,000  Level FlightAware ADS-B
Wed 05:52:51 AM -23.3680 -43.9890 258° West 417 480 36,000  Level FlightAware ADS-B
Wed 05:53:26 AM -23.3820 -44.0590 258° West 421 484 36,000  Level FlightAware ADS-B
Wed 05:54:01 AM -23.3990 -44.1330 256° West 423 487 36,000  Level FlightAware ADS-B
Wed 05:54:37 AM -23.4150 -44.2070 257° West 423 487 36,000  Level FlightAware ADS-B
Wed 05:55:11 AM -23.4300 -44.2780 257° West 423 487 36,000  Level FlightAware ADS-B
Wed 05:55:47 AM -23.4460 -44.3520 257° West 421 484 36,000  Level FlightAware ADS-B
Wed 05:56:20 AM -23.4600 -44.4190 257° West 421 484 36,000  Level FlightAware ADS-B
Wed 05:57:08 AM -23.4790 -44.5100 257° West 423 487 36,000  Level FlightAware ADS-B
Wed 05:57:56 AM -23.4970 -44.5940 257° West 423 487 36,000  Level FlightAware ADS-B
Wed 05:58:42 AM -23.5140 -44.6760 257° West 423 487 36,000  Level FlightAware ADS-B
Wed 05:59:18 AM -23.5280 -44.7390 256° West 423 487 36,000  Level FlightAware ADS-B
Wed 05:59:55 AM -23.5410 -44.8050 258° West 423 487 36,000  Level FlightAware ADS-B
Wed 06:00:32 AM -23.5550 -44.8700 257° West 423 487 36,000  Level FlightAware ADS-B
Wed 06:01:09 AM -23.5690 -44.9360 257° West 423 487 36,000  Level FlightAware ADS-B
Wed 06:01:45 AM -23.5830 -44.9990 256° West 423 487 36,000  Level FlightAware ADS-B
Wed 06:02:22 AM -23.5960 -45.0650 258° West 423 487 36,000  Level FlightAware ADS-B
Wed 06:02:58 AM -23.6100 -45.1280 256° West 423 487 36,000 -1,520 Level FlightAware ADS-B
Wed 06:03:37 AM -23.6480 -45.3220 258° West 401 461 34,100 -3,038 Descending FlightAware ADS-B
Wed 06:04:17 AM -23.6640 -45.3990 257° West 399 459 32,000 -3,474 Descending FlightAware ADS-B
Wed 06:04:53 AM -23.6790 -45.4730 258° West 411 473 29,700 -2,229 Descending FlightAware ADS-B
Wed 06:05:27 AM -23.6910 -45.5310 257° West 412 474 29,400 -3,043 Descending FlightAware ADS-B
Wed 06:06:02 AM -23.7080 -45.6120 257° West 410 472 26,200 -4,154 Descending FlightAware ADS-B
Wed 06:06:32 AM -23.7190 -45.6680 258° West 431 496 24,900 -2,873 Descending FlightAware ADS-B
Wed 06:07:13 AM -23.7390 -45.7640 257° West 435 501 22,800 -2,182 Descending FlightAware ADS-B
Wed 06:07:49 AM -23.7540 -45.8380 257° West 430 495 22,100 -1,412 Descending FlightAware ADS-B
Wed 06:08:21 AM -23.7680 -45.9060 257° West 421 484 21,200 -2,118 Descending FlightAware ADS-B
Wed 06:08:57 AM -23.7820 -45.9760 258° West 406 467 19,700 -2,500 Descending FlightAware ADS-B
Wed 06:09:33 AM -23.7960 -46.0490 258° West 397 457 18,200 -2,583 Descending FlightAware ADS-B
Wed 06:10:09 AM -23.8100 -46.1190 258° West 398 458 16,600 -2,559 Descending FlightAware ADS-B
Wed 06:10:41 AM -23.8230 -46.1820 257° West 393 452 15,300 -2,471 Descending FlightAware ADS-B
Wed 06:11:17 AM -23.8370 -46.2510 257° West 391 450 13,800 -2,571 Descending FlightAware ADS-B
Wed 06:11:37 AM -23.8450 -46.2910 258° West 388 447 12,900 -2,273 Descending FlightAware ADS-B
Wed 06:12:23 AM -23.8610 -46.3770 258° West 380 437 11,300 -1,575 Descending FlightAware ADS-B
Wed 06:12:57 AM -23.8740 -46.4400 257° West 370 426 10,800 -667 Descending FlightAware ADS-B
Wed 06:13:35 AM -23.8860 -46.5050 259° West 329 379 10,500 -646 Descending FlightAware ADS-B
Wed 06:14:02 AM -23.8770 -46.5410 285° West 310 357 10,100 -789 Descending FlightAware ADS-B
Wed 06:14:13 AM -23.8630 -46.5560 316° Northwest 297 342 10,000 -909 Descending FlightAware ADS-B
Wed 06:14:35 AM -23.8400 -46.5780 319° Northwest 285 328 9,600 -1,000 Descending FlightAware ADS-B
Wed 06:14:55 AM -23.8210 -46.5970 318° Northwest 280 322 9,300 -818 Descending FlightAware ADS-B
Wed 06:15:19 AM -23.7970 -46.6210 318° Northwest 280 322 9,000 -682 Descending FlightAware ADS-B
Wed 06:15:39 AM -23.7780 -46.6390 319° Northwest 278 320 8,800 -474 Descending FlightAware ADS-B
Wed 06:15:57 AM -23.7610 -46.6560 318° Northwest 276 318 8,700 -545 Descending FlightAware ADS-B
Wed 06:16:23 AM -23.7370 -46.6800 318° Northwest 272 313 8,400 -652 Descending FlightAware ADS-B
Wed 06:16:43 AM -23.7180 -46.6980 319° Northwest 271 312 8,200 -600 Descending FlightAware ADS-B
Wed 06:17:03 AM -23.7000 -46.7160 318° Northwest 269 310 8,000 -1,050 Descending FlightAware ADS-B
Wed 06:17:23 AM -23.6800 -46.7330 322° Northwest 261 300 7,500 -1,814 Descending FlightAware ADS-B
Wed 06:17:46 AM -23.6570 -46.7480 329° Northwest 260 299 6,700 -2,233 Descending FlightAware ADS-B
Wed 06:18:06 AM -23.6350 -46.7620 330° Northwest 257 296 5,900 -2,700 Descending FlightAware ADS-B
Wed 06:18:26 AM -23.6140 -46.7760 329° Northwest 269 310 4,900 -2,400 Descending FlightAware ADS-B
Wed 06:18:46 AM -23.5930 -46.7910 327° Northwest 274 315 4,300 -1,105 Descending FlightAware ADS-B
Wed 06:19:04 AM -23.5740 -46.8030 330° Northwest 257 296 4,200 -273 Descending FlightAware ADS-B
Wed 06:19:08 AM -23.5690 -46.8040 350° North 251 289 4,200 600 Level FlightAware ADS-B
Wed 06:19:14 AM -23.5620 -46.8050 353° North 239 275 4,300 214 Climbing FlightAware ADS-B
Wed 06:19:36 AM -23.5420 -46.7970 20° North 210 242 4,300  Level FlightAware ADS-B
Wed 06:19:56 AM -23.5280 -46.7820 44° Northeast 193 222 4,300  Level FlightAware ADS-B
Wed 06:20:12 AM -23.5200 -46.7710 52° Northeast 172 198 4,300  Level FlightAware ADS-B
Wed 06:20:20 AM -23.5190 -46.7640 81° East 158 182 4,300 -214 Level FlightAware ADS-B
Wed 06:20:40 AM -23.5180 -46.7480 86° East 150 173 4,200 -375 Descending FlightAware ADS-B
Wed 06:20:52 AM -23.5180 -46.7400 90° East 149 171 4,100 -167 Descending FlightAware ADS-B
Wed 06:21:16 AM -23.5260 -46.7260 122° Southeast 145 167 4,100  Level FlightAware ADS-B
Wed 06:21:38 AM -23.5390 -46.7170 148° Southeast 144 166 4,100 -286 Level FlightAware ADS-B
Wed 06:21:58 AM -23.5500 -46.7100 150° Southeast 147 169 3,900 -600 Descending FlightAware ADS-B
Wed 06:22:18 AM -23.5610 -46.7020 146° Southeast 145 167 3,700 -600 Descending FlightAware ADS-B
Wed 06:22:38 AM -23.5730 -46.6940 149° Southeast 142 163 3,500 -789 Descending FlightAware ADS-B
Wed 06:22:56 AM -23.5830 -46.6870 147° Southeast 134 154 3,200 -818 Descending FlightAware ADS-B
Wed 06:23:22 AM -23.5960 -46.6780 148° Southeast 129 148 2,900 -652 Descending FlightAware ADS-B
Wed 06:23:42 AM -23.6060 -46.6710 147° Southeast 129 148 2,700 -310 Descending FlightAware ADS-B
Wed 06:24:20 AM -23.6230 -46.6590 147° Southeast 128 147 2,600 -158 Descending FlightAware ADS-B
Wed 06:26:00 AM -23.6267 -46.6554 138° Southeast  Level Estimated
Wed 06:27:00 AM -23.6267 -46.6554 114° Southeast  Level Estimated
Wed 06:28:00 AM -23.6267 -46.6554 114° Southeast  Level Estimated
Wed 06:29:00 AM -23.6267 -46.6554 114° Southeast  Level Estimated
Wed 06:30:00 AM -23.6267 -46.6554 114° Southeast  Level Estimated
Wed 06:31:00 AM -23.6267 -46.6554 114° Southeast  Level Estimated
Wed 06:32:00 AM -23.6267 -46.6554 114° Southeast  Level Estimated
Wed 06:33:00 AM -23.6267 -46.6554 114° Southeast  Level Estimated
Wed 06:34:00 AM -23.6267 -46.6554 114° Southeast  Level Estimated
Wed 06:35:00 AM -23.6267 -46.6554 114° Southeast  Level Estimated
Wed 06:36:00 AM -23.6267 -46.6554 114° Southeast  Level Estimated
Wed 06:37:00 AM -23.6267 -46.6554 114° Southeast  Level Estimated
Wed 06:38:00 AM -23.6267 -46.6554 114° Southeast  Level Estimated
Wed 06:39:00 AM -23.6267 -46.6554 114° Southeast  Level Estimated
Wed 06:40:00 AM -23.6267 -46.6554 114° Southeast  Level Estimated
Wed 06:41:00 AM -23.6267 -46.6554 114° Southeast  Level Estimated
Wed 06:42:00 AM -23.6267 -46.6554 114° Southeast  Level Estimated
Wed 06:43:00 AM -23.6267 -46.6554 114° Southeast  Level Estimated
Wed 06:44:00 AM -23.6267 -46.6554 114° Southeast  Level Estimated
Wed 06:45:00 AM -23.6267 -46.6554 114° Southeast  Level Estimated

Login

Don't have an account? Register now (free) for customized features, flight alerts, and more!